Time;durP1;ratioP1;P1;durP2;ratioP2;P2;SDS_P1;SDS_P2;PMS_P1;PMS_P2;Temp;Humidity;BMP_temperature;BMP_pressure;BME280_temperature;BME280_humidity;BME280_pressure;Samples;Min_cycle;Max_cycle;Signal;HPM_P1;HPM_P2
2023/12/11 00:00:44;;;;;;;5.15;0.82;;;;;;;;;;5113849;28;20020;-58
2023/12/11 00:03:10;;;;;;;1.50;0.57;;;;;;;;;;5113753;28;20027;-58
2023/12/11 00:05:39;;;;;;;3.20;0.35;;;;;;;;;;5114570;28;20030;-58
2023/12/11 00:08:06;;;;;;;1.20;0.40;;;;;;;;;;5113833;28;20024;-58
2023/12/11 00:10:32;;;;;;;0.60;0.38;;;;;;;;;;5113710;28;20414;-59
2023/12/11 00:12:58;;;;;;;0.90;0.22;;;;;;;;;;5113444;28;20035;-59
2023/12/11 00:15:24;;;;;;;1.77;0.52;;;;;;;;;;5113982;28;20032;-58
2023/12/11 00:17:50;;;;;;;0.77;0.30;;;;;;;;;;5114605;28;20353;-58
2023/12/11 00:20:16;;;;;;;0.70;0.22;;;;;;;;;;5116635;28;20037;-58
2023/12/11 00:22:42;;;;;;;0.82;0.40;;;;;;;;;;5117511;28;20485;-58
2023/12/11 00:25:10;;;;;;;0.45;0.15;;;;;;;;;;5117492;28;20030;-58
2023/12/11 00:27:36;;;;;;;1.33;0.43;;;;;;;;;;5117526;28;20024;-58
2023/12/11 00:30:02;;;;;;;0.88;0.40;;;;;;;;;;5117222;28;20034;-58
2023/12/11 00:32:28;;;;;;;1.73;0.50;;;;;;;;;;5117496;28;20058;-58
2023/12/11 00:34:54;;;;;;;0.30;0.10;;;;;;;;;;5117920;28;20024;-58
2023/12/11 00:37:20;;;;;;;0.70;0.40;;;;;;;;;;5118185;28;20082;-58
2023/12/11 00:39:46;;;;;;;0.80;0.40;;;;;;;;;;5116953;28;20055;-58
2023/12/11 00:42:12;;;;;;;0.82;0.30;;;;;;;;;;5117965;28;20526;-58
2023/12/11 00:44:38;;;;;;;0.75;0.40;;;;;;;;;;5117393;28;20102;-58
2023/12/11 00:47:05;;;;;;;1.42;0.43;;;;;;;;;;5117738;28;20027;-58
2023/12/11 00:49:31;;;;;;;0.52;0.20;;;;;;;;;;5117114;28;20026;-58
2023/12/11 00:51:57;;;;;;;0.50;0.30;;;;;;;;;;5117073;28;20481;-58
2023/12/11 00:54:23;;;;;;;1.05;0.50;;;;;;;;;;5116891;28;20027;-58
2023/12/11 00:56:49;;;;;;;0.70;0.30;;;;;;;;;;5117078;28;20529;-58
2023/12/11 00:59:15;;;;;;;2.67;0.70;;;;;;;;;;5116887;28;20036;-58
2023/12/11 01:01:42;;;;;;;1.40;0.57;;;;;;;;;;5116872;28;20381;-58
2023/12/11 01:04:08;;;;;;;0.80;0.30;;;;;;;;;;5116753;28;20032;-58
2023/12/11 01:06:34;;;;;;;0.63;0.28;;;;;;;;;;5117319;28;20115;-58
2023/12/11 01:09:00;;;;;;;0.63;0.30;;;;;;;;;;5116725;28;20107;-58
2023/12/11 01:11:26;;;;;;;0.80;0.30;;;;;;;;;;5116637;28;20020;-58
2023/12/11 01:13:52;;;;;;;0.57;0.28;;;;;;;;;;5117150;28;20027;-58
2023/12/11 01:16:19;;;;;;;0.40;0.22;;;;;;;;;;5117140;28;20039;-58
2023/12/11 01:18:45;;;;;;;1.60;0.30;;;;;;;;;;5117086;28;20031;-59
2023/12/11 01:21:11;;;;;;;0.65;0.20;;;;;;;;;;5116209;28;20024;-58
2023/12/11 01:23:37;;;;;;;0.40;0.20;;;;;;;;;;5116058;28;20027;-58
2023/12/11 01:26:03;;;;;;;2.75;0.35;;;;;;;;;;5116632;28;20077;-58
2023/12/11 01:28:29;;;;;;;1.08;0.28;;;;;;;;;;5116382;28;20024;-58
2023/12/11 01:30:55;;;;;;;3.65;0.52;;;;;;;;;;5116663;28;20085;-58
2023/12/11 01:33:21;;;;;;;0.70;0.30;;;;;;;;;;5116574;28;20063;-58
2023/12/11 01:35:47;;;;;;;0.47;0.20;;;;;;;;;;5116228;28;20450;-58
2023/12/11 01:38:13;;;;;;;0.28;0.15;;;;;;;;;;5116258;28;20416;-58
2023/12/11 01:40:39;;;;;;;0.65;0.20;;;;;;;;;;5116839;28;20030;-58
2023/12/11 01:43:12;;;;;;;1.05;0.38;;;;;;;;;;5115957;28;20039;-58
2023/12/11 01:45:38;;;;;;;1.35;0.50;;;;;;;;;;5116464;28;20077;-58
2023/12/11 01:48:04;;;;;;;0.57;0.25;;;;;;;;;;5116548;28;20027;-58
2023/12/11 01:50:30;;;;;;;0.88;0.30;;;;;;;;;;5115801;28;20092;-58
2023/12/11 01:52:56;;;;;;;1.30;0.57;;;;;;;;;;5115989;28;20034;-58
2023/12/11 01:55:23;;;;;;;0.10;0.08;;;;;;;;;;5115753;28;20366;-59
2023/12/11 01:57:49;;;;;;;0.65;0.20;;;;;;;;;;5116048;28;20058;-59
2023/12/11 02:00:15;;;;;;;0.30;0.10;;;;;;;;;;5115373;28;20454;-58
2023/12/11 02:02:42;;;;;;;0.52;0.20;;;;;;;;;;5115478;28;20035;-58
2023/12/11 02:05:08;;;;;;;0.50;0.25;;;;;;;;;;5115265;28;20142;-59
2023/12/11 02:07:34;;;;;;;0.35;0.15;;;;;;;;;;5115897;28;20110;-59
2023/12/11 02:10:00;;;;;;;1.80;0.28;;;;;;;;;;5115572;28;20076;-58
2023/12/11 02:12:26;;;;;;;0.47;0.25;;;;;;;;;;5115447;28;20106;-58
2023/12/11 02:14:51;;;;;;;0.38;0.20;;;;;;;;;;5115057;28;20046;-58
2023/12/11 02:17:17;;;;;;;1.27;0.43;;;;;;;;;;5115851;28;20122;-58
2023/12/11 02:19:43;;;;;;;0.43;0.20;;;;;;;;;;5115283;28;20188;-59
2023/12/11 02:22:11;;;;;;;0.40;0.20;;;;;;;;;;5115788;28;20031;-58
2023/12/11 02:24:40;;;;;;;0.20;0.10;;;;;;;;;;5115951;28;20084;-58
2023/12/11 02:27:06;;;;;;;0.15;0.10;;;;;;;;;;5116044;28;20031;-59
2023/12/11 02:29:32;;;;;;;0.30;0.10;;;;;;;;;;5115648;28;20032;-59
2023/12/11 02:31:58;;;;;;;0.20;0.10;;;;;;;;;;5115617;28;20068;-58
2023/12/11 02:34:24;;;;;;;0.60;0.17;;;;;;;;;;5114999;28;20062;-58
2023/12/11 02:36:49;;;;;;;0.50;0.20;;;;;;;;;;5114778;28;20068;-59
2023/12/11 02:39:15;;;;;;;0.05;0.00;;;;;;;;;;5114682;28;20024;-59
2023/12/11 02:41:41;;;;;;;0.10;0.10;;;;;;;;;;5115169;28;20023;-59
2023/12/11 02:44:07;;;;;;;0.55;0.20;;;;;;;;;;5114781;28;20373;-59
2023/12/11 02:46:33;;;;;;;0.28;0.15;;;;;;;;;;5115378;28;20092;-59
2023/12/11 02:48:59;;;;;;;0.30;0.10;;;;;;;;;;5114801;28;20028;-59
2023/12/11 02:51:25;;;;;;;0.30;0.15;;;;;;;;;;5114683;28;20034;-59
2023/12/11 02:53:51;;;;;;;0.10;0.00;;;;;;;;;;5114657;28;20027;-59
2023/12/11 02:56:17;;;;;;;0.40;0.17;;;;;;;;;;5114648;28;20063;-59
2023/12/11 02:58:44;;;;;;;0.30;0.20;;;;;;;;;;5114231;28;20070;-59
2023/12/11 03:01:10;;;;;;;0.90;0.30;;;;;;;;;;5115060;28;20028;-59
2023/12/11 03:03:36;;;;;;;0.30;0.17;;;;;;;;;;5114881;28;20445;-59
2023/12/11 03:06:04;;;;;;;0.68;0.30;;;;;;;;;;5115033;28;20119;-59
2023/12/11 03:08:30;;;;;;;0.57;0.20;;;;;;;;;;5114492;28;20038;-59
2023/12/11 03:10:55;;;;;;;0.52;0.20;;;;;;;;;;5114135;28;20015;-59
2023/12/11 03:13:21;;;;;;;0.43;0.13;;;;;;;;;;5114310;28;20457;-59
2023/12/11 03:15:47;;;;;;;0.30;0.10;;;;;;;;;;5114861;28;20028;-59
2023/12/11 03:18:13;;;;;;;3.08;0.20;;;;;;;;;;5114374;28;20300;-59
2023/12/11 03:20:39;;;;;;;0.40;0.20;;;;;;;;;;5114510;28;20064;-59
2023/12/11 03:23:05;;;;;;;0.65;0.30;;;;;;;;;;5114204;28;20039;-59
2023/12/11 03:25:31;;;;;;;0.47;0.30;;;;;;;;;;5114688;28;20115;-59
2023/12/11 03:27:57;;;;;;;0.68;0.30;;;;;;;;;;5115016;28;20468;-59
2023/12/11 03:30:23;;;;;;;0.73;0.28;;;;;;;;;;5114372;28;20080;-59
2023/12/11 03:32:49;;;;;;;0.52;0.20;;;;;;;;;;5114134;28;20119;-59
2023/12/11 03:35:15;;;;;;;0.77;0.30;;;;;;;;;;5114744;28;20059;-59
2023/12/11 03:37:41;;;;;;;3.75;0.40;;;;;;;;;;5114174;28;20020;-59
2023/12/11 03:40:07;;;;;;;0.35;0.10;;;;;;;;;;5114651;28;20036;-59
2023/12/11 03:42:33;;;;;;;2.55;0.45;;;;;;;;;;5114218;28;20407;-59
2023/12/11 03:45:02;;;;;;;0.20;0.10;;;;;;;;;;5114465;28;20042;-59
2023/12/11 03:47:28;;;;;;;0.40;0.10;;;;;;;;;;5114107;28;20027;-59
2023/12/11 03:49:54;;;;;;;0.82;0.30;;;;;;;;;;5113984;28;20028;-59
2023/12/11 03:52:20;;;;;;;0.43;0.10;;;;;;;;;;5114563;28;20091;-59
2023/12/11 03:54:46;;;;;;;0.57;0.20;;;;;;;;;;5116144;28;20046;-59
2023/12/11 03:57:12;;;;;;;0.28;0.10;;;;;;;;;;5118662;28;20462;-59
2023/12/11 03:59:38;;;;;;;0.57;0.10;;;;;;;;;;5118368;28;20031;-59
2023/12/11 04:02:05;;;;;;;0.05;0.03;;;;;;;;;;5118577;28;20024;-58
2023/12/11 04:04:31;;;;;;;0.08;0.00;;;;;;;;;;5117830;28;20488;-59
2023/12/11 04:06:57;;;;;;;2.45;0.10;;;;;;;;;;5118848;28;20027;-59
2023/12/11 04:09:23;;;;;;;1.02;0.15;;;;;;;;;;5118114;28;20023;-58
2023/12/11 04:11:49;;;;;;;1.88;0.28;;;;;;;;;;5117839;28;20441;-58
2023/12/11 04:14:15;;;;;;;2.28;0.20;;;;;;;;;;5117715;28;20097;-59
2023/12/11 04:16:42;;;;;;;0.70;0.28;;;;;;;;;;5118515;28;20028;-59
2023/12/11 04:19:08;;;;;;;0.45;0.10;;;;;;;;;;5118079;28;20046;-58
2023/12/11 04:21:34;;;;;;;0.28;0.15;;;;;;;;;;5117655;28;20020;-58
2023/12/11 04:24:08;;;;;;;1.02;0.25;;;;;;;;;;5117732;28;20046;-59
2023/12/11 04:26:34;;;;;;;0.43;0.15;;;;;;;;;;5117833;28;20371;-58
2023/12/11 04:29:00;;;;;;;0.40;0.20;;;;;;;;;;5118275;28;20022;-58
2023/12/11 04:31:26;;;;;;;0.10;0.05;;;;;;;;;;5117387;28;20027;-58
2023/12/11 04:33:52;;;;;;;0.35;0.00;;;;;;;;;;5117307;28;20062;-59
2023/12/11 04:36:18;;;;;;;2.55;0.38;;;;;;;;;;5117524;28;20023;-58
2023/12/11 04:38:44;;;;;;;0.10;0.10;;;;;;;;;;5118185;28;20033;-59
2023/12/11 04:41:10;;;;;;;1.30;0.22;;;;;;;;;;5117215;28;20027;-58
2023/12/11 04:43:36;;;;;;;0.45;0.13;;;;;;;;;;5117701;28;20122;-58
2023/12/11 04:46:02;;;;;;;2.25;0.30;;;;;;;;;;5117747;28;20027;-59
2023/12/11 04:48:28;;;;;;;0.32;0.10;;;;;;;;;;5117703;28;20069;-59
2023/12/11 04:50:54;;;;;;;0.75;0.32;;;;;;;;;;5117686;28;20023;-58
2023/12/11 04:53:20;;;;;;;4.00;0.30;;;;;;;;;;5116669;28;20054;-58
2023/12/11 04:55:46;;;;;;;0.57;0.15;;;;;;;;;;5117595;28;20096;-59
2023/12/11 04:58:12;;;;;;;0.38;0.10;;;;;;;;;;5116904;28;20019;-58
2023/12/11 05:00:38;;;;;;;1.23;0.40;;;;;;;;;;5116871;28;20024;-58
2023/12/11 05:03:04;;;;;;;0.25;0.20;;;;;;;;;;5116906;28;20043;-59
2023/12/11 05:05:30;;;;;;;1.00;0.22;;;;;;;;;;5116397;28;20035;-58
2023/12/11 05:07:56;;;;;;;0.75;0.32;;;;;;;;;;5117458;28;20030;-59
2023/12/11 05:10:22;;;;;;;0.82;0.28;;;;;;;;;;5116458;28;20020;-58
2023/12/11 05:12:48;;;;;;;0.25;0.20;;;;;;;;;;5116952;28;20024;-58
2023/12/11 05:15:14;;;;;;;0.13;0.10;;;;;;;;;;5117001;28;20031;-59
2023/12/11 05:17:40;;;;;;;0.32;0.13;;;;;;;;;;5099165;28;20028;-58
2023/12/11 05:20:06;;;;;;;0.40;0.20;;;;;;;;;;5116583;28;20023;-59
2023/12/11 05:22:32;;;;;;;0.10;0.10;;;;;;;;;;5116480;28;20028;-58
2023/12/11 05:24:58;;;;;;;2.90;0.45;;;;;;;;;;5116664;28;20042;-59
2023/12/11 05:27:24;;;;;;;2.03;0.45;;;;;;;;;;5116654;28;20506;-59
2023/12/11 05:29:50;;;;;;;0.93;0.30;;;;;;;;;;5116319;28;20038;-60
2023/12/11 05:32:16;;;;;;;1.08;0.40;;;;;;;;;;5116182;28;20377;-60
2023/12/11 05:34:42;;;;;;;0.88;0.30;;;;;;;;;;5116615;28;20031;-58
2023/12/11 05:37:08;;;;;;;0.93;0.40;;;;;;;;;;5116195;28;20024;-60
2023/12/11 05:39:34;;;;;;;0.20;0.13;;;;;;;;;;5116064;28;20039;-59
2023/12/11 05:42:00;;;;;;;2.33;0.70;;;;;;;;;;5116348;28;20028;-59
2023/12/11 05:44:26;;;;;;;0.68;0.38;;;;;;;;;;5116487;28;20036;-59
2023/12/11 05:46:52;;;;;;;0.95;0.45;;;;;;;;;;5116098;28;20027;-59
2023/12/11 05:49:18;;;;;;;2.85;0.22;;;;;;;;;;5115689;28;20027;-59
2023/12/11 05:51:44;;;;;;;0.95;0.30;;;;;;;;;;5098232;28;20111;-59
2023/12/11 05:54:10;;;;;;;0.65;0.30;;;;;;;;;;5115403;28;20427;-58
2023/12/11 05:56:36;;;;;;;0.35;0.20;;;;;;;;;;5116051;28;20411;-59
2023/12/11 05:59:02;;;;;;;0.90;0.20;;;;;;;;;;5115834;28;20024;-59
2023/12/11 06:01:29;;;;;;;1.65;0.30;;;;;;;;;;5115601;28;20024;-59
2023/12/11 06:03:55;;;;;;;0.30;0.20;;;;;;;;;;5115967;28;20480;-59
2023/12/11 06:06:21;;;;;;;0.40;0.15;;;;;;;;;;5116314;28;20065;-59
2023/12/11 06:08:47;;;;;;;0.40;0.20;;;;;;;;;;5116383;28;20031;-59
2023/12/11 06:11:13;;;;;;;0.45;0.20;;;;;;;;;;5115348;28;20034;-57
2023/12/11 06:13:39;;;;;;;1.40;0.50;;;;;;;;;;5115459;28;20377;-58
2023/12/11 06:16:05;;;;;;;2.42;0.93;;;;;;;;;;5114830;28;20032;-57
2023/12/11 06:18:31;;;;;;;3.97;0.73;;;;;;;;;;5115723;28;20073;-58
2023/12/11 06:21:00;;;;;;;0.60;0.30;;;;;;;;;;5114975;28;20028;-58
2023/12/11 06:23:26;;;;;;;0.35;0.20;;;;;;;;;;5115209;28;20077;-58
2023/12/11 06:25:52;;;;;;;0.43;0.20;;;;;;;;;;5115704;28;20019;-58
2023/12/11 06:28:18;;;;;;;0.45;0.28;;;;;;;;;;5115730;28;20063;-57
2023/12/11 06:30:44;;;;;;;0.93;0.52;;;;;;;;;;5115161;28;20052;-56
2023/12/11 06:33:10;;;;;;;1.55;0.30;;;;;;;;;;5115048;28;20035;-58
2023/12/11 06:35:36;;;;;;;0.68;0.40;;;;;;;;;;5115044;28;20106;-57
2023/12/11 06:38:02;;;;;;;0.50;0.20;;;;;;;;;;5115422;28;20054;-57
2023/12/11 06:40:28;;;;;;;1.30;0.30;;;;;;;;;;5115507;28;20068;-58
2023/12/11 06:42:54;;;;;;;0.45;0.28;;;;;;;;;;5115676;28;20430;-57
2023/12/11 06:45:20;;;;;;;1.80;0.43;;;;;;;;;;5114955;28;20449;-57
2023/12/11 06:47:46;;;;;;;1.13;0.50;;;;;;;;;;5115485;28;20020;-57
2023/12/11 06:50:12;;;;;;;0.60;0.20;;;;;;;;;;5115326;28;20157;-56
2023/12/11 06:52:38;;;;;;;0.55;0.25;;;;;;;;;;5115580;28;20342;-57
2023/12/11 06:55:05;;;;;;;1.00;0.30;;;;;;;;;;5114610;28;20111;-58
2023/12/11 06:57:31;;;;;;;0.73;0.30;;;;;;;;;;5115566;28;20044;-57
2023/12/11 06:59:57;;;;;;;0.47;0.20;;;;;;;;;;5114530;28;20080;-58
2023/12/11 07:02:23;;;;;;;0.80;0.47;;;;;;;;;;5114550;28;20376;-57
2023/12/11 07:04:49;;;;;;;1.30;0.52;;;;;;;;;;5114201;28;20077;-58
2023/12/11 07:07:15;;;;;;;0.55;0.25;;;;;;;;;;5114847;28;20050;-57
2023/12/11 07:09:46;;;;;;;3.53;0.40;;;;;;;;;;5114778;28;20030;-57
2023/12/11 07:12:12;;;;;;;1.27;0.40;;;;;;;;;;5114954;28;20024;-58
2023/12/11 07:14:37;;;;;;;0.52;0.28;;;;;;;;;;5114391;28;20471;-58
2023/12/11 07:17:03;;;;;;;0.68;0.32;;;;;;;;;;5114407;28;20422;-58
2023/12/11 07:19:29;;;;;;;0.40;0.25;;;;;;;;;;5114651;28;20035;-57
2023/12/11 07:21:55;;;;;;;1.35;0.20;;;;;;;;;;5114601;28;20031;-57
2023/12/11 07:24:21;;;;;;;0.90;0.40;;;;;;;;;;5114206;28;20065;-58
2023/12/11 07:26:47;;;;;;;1.15;0.47;;;;;;;;;;5114284;28;20096;-58
2023/12/11 07:29:13;;;;;;;0.88;0.40;;;;;;;;;;5114131;28;20021;-58
2023/12/11 07:31:40;;;;;;;1.23;0.40;;;;;;;;;;5114191;28;20024;-58
2023/12/11 07:34:07;;;;;;;0.73;0.32;;;;;;;;;;5114932;28;20024;-58
2023/12/11 07:36:33;;;;;;;0.98;0.50;;;;;;;;;;5114143;28;20052;-58
2023/12/11 07:38:59;;;;;;;1.08;0.60;;;;;;;;;;5115014;28;20441;-57
2023/12/11 07:41:25;;;;;;;1.17;0.55;;;;;;;;;;5114345;28;20035;-57
2023/12/11 07:43:51;;;;;;;0.70;0.30;;;;;;;;;;5114257;28;20031;-58
2023/12/11 07:46:17;;;;;;;0.68;0.35;;;;;;;;;;5114094;28;20027;-58
2023/12/11 07:48:43;;;;;;;0.70;0.30;;;;;;;;;;5114505;28;20036;-58
2023/12/11 07:51:19;;;;;;;1.67;0.60;;;;;;;;;;5114664;28;20022;-58
2023/12/11 07:53:45;;;;;;;2.05;0.47;;;;;;;;;;5114291;28;20065;-57
2023/12/11 07:56:24;;;;;;;0.73;0.32;;;;;;;;;;5113916;28;20529;-58
2023/12/11 07:58:50;;;;;;;0.98;0.40;;;;;;;;;;5114225;28;20377;-58
2023/12/11 08:01:16;;;;;;;2.65;0.90;;;;;;;;;;5113935;28;20120;-58
2023/12/11 08:03:43;;;;;;;1.58;0.63;;;;;;;;;;5113907;28;20039;-58
2023/12/11 08:06:09;;;;;;;0.68;0.30;;;;;;;;;;5113916;28;20036;-58
2023/12/11 08:08:40;;;;;;;0.70;0.32;;;;;;;;;;5114005;28;20031;-58
2023/12/11 08:11:06;;;;;;;1.00;0.47;;;;;;;;;;5114400;28;20032;-57
2023/12/11 08:13:32;;;;;;;0.95;0.40;;;;;;;;;;5113505;28;20085;-58
2023/12/11 08:15:58;;;;;;;1.08;0.52;;;;;;;;;;5114136;28;20036;-58
2023/12/11 08:18:24;;;;;;;0.80;0.32;;;;;;;;;;5114364;28;20058;-58
2023/12/11 08:20:50;;;;;;;1.52;0.45;;;;;;;;;;5113658;28;20023;-55
2023/12/11 08:23:16;;;;;;;0.70;0.30;;;;;;;;;;5113272;28;20032;-58
2023/12/11 08:25:41;;;;;;;0.52;0.30;;;;;;;;;;5113812;28;20106;-58
2023/12/11 08:28:07;;;;;;;1.55;0.47;;;;;;;;;;5113952;28;20028;-58
2023/12/11 08:30:34;;;;;;;1.25;0.45;;;;;;;;;;5113676;28;20449;-57
2023/12/11 08:33:00;;;;;;;1.63;0.57;;;;;;;;;;5113731;28;20346;-58
2023/12/11 08:35:26;;;;;;;1.55;0.40;;;;;;;;;;5113591;28;20027;-56
2023/12/11 08:37:52;;;;;;;0.60;0.40;;;;;;;;;;5113476;28;20031;-58
2023/12/11 08:40:20;;;;;;;0.85;0.40;;;;;;;;;;5115441;28;20092;-57
2023/12/11 08:42:46;;;;;;;0.68;0.30;;;;;;;;;;5117832;28;20403;-57
2023/12/11 08:45:12;;;;;;;0.50;0.30;;;;;;;;;;5117210;28;20118;-56
2023/12/11 08:47:41;;;;;;;1.98;0.77;;;;;;;;;;5116990;28;20028;-57
2023/12/11 08:50:10;;;;;;;0.82;0.35;;;;;;;;;;5117680;28;20032;-58
2023/12/11 08:52:37;;;;;;;0.85;0.50;;;;;;;;;;5117235;28;20038;-58
2023/12/11 08:55:03;;;;;;;1.85;0.50;;;;;;;;;;5117365;28;20034;-57
2023/12/11 08:57:29;;;;;;;0.88;0.57;;;;;;;;;;5117860;28;20074;-56
2023/12/11 08:59:55;;;;;;;1.63;0.57;;;;;;;;;;5117031;28;20111;-57
2023/12/11 09:02:21;;;;;;;0.98;0.40;;;;;;;;;;5116880;28;20023;-58
2023/12/11 09:04:47;;;;;;;1.05;0.52;;;;;;;;;;5116776;28;20035;-58
2023/12/11 09:07:12;;;;;;;1.25;0.40;;;;;;;;;;5117068;28;20492;-58
2023/12/11 09:09:39;;;;;;;0.80;0.30;;;;;;;;;;5116830;28;20369;-58
2023/12/11 09:12:06;;;;;;;5.47;0.80;;;;;;;;;;5117273;28;20024;-58
2023/12/11 09:14:33;;;;;;;2.08;0.50;;;;;;;;;;5116749;28;20036;-58
2023/12/11 09:16:59;;;;;;;3.53;0.57;;;;;;;;;;5117213;28;20026;-58
2023/12/11 09:19:25;;;;;;;1.30;0.43;;;;;;;;;;5117007;28;20024;-58
2023/12/11 09:21:51;;;;;;;1.13;0.45;;;;;;;;;;5116662;28;20055;-58
2023/12/11 09:24:17;;;;;;;1.70;0.68;;;;;;;;;;5116549;28;20036;-58
2023/12/11 09:26:43;;;;;;;1.65;0.50;;;;;;;;;;5117100;28;20130;-57
2023/12/11 09:29:10;;;;;;;3.33;0.90;;;;;;;;;;5117476;28;20353;-58
2023/12/11 09:31:37;;;;;;;1.52;0.50;;;;;;;;;;5116991;28;20041;-59
2023/12/11 09:34:02;;;;;;;0.73;0.40;;;;;;;;;;5116468;28;20345;-58
2023/12/11 09:36:28;;;;;;;0.95;0.47;;;;;;;;;;5116823;28;20030;-59
2023/12/11 09:38:55;;;;;;;0.50;0.30;;;;;;;;;;5116770;28;20019;-58
2023/12/11 09:41:21;;;;;;;0.95;0.30;;;;;;;;;;5116121;28;20029;-58
2023/12/11 09:43:48;;;;;;;1.23;0.47;;;;;;;;;;5116688;28;20385;-59
2023/12/11 09:46:16;;;;;;;2.53;0.52;;;;;;;;;;5116129;28;20051;-59
2023/12/11 09:48:42;;;;;;;1.33;0.43;;;;;;;;;;5116373;28;20034;-58
2023/12/11 09:51:09;;;;;;;2.00;0.55;;;;;;;;;;5115178;28;20085;-58
2023/12/11 09:53:35;;;;;;;2.30;0.45;;;;;;;;;;5115511;28;20110;-57
2023/12/11 09:56:02;;;;;;;2.17;0.40;;;;;;;;;;5116095;28;20047;-58
2023/12/11 09:58:28;;;;;;;0.73;0.32;;;;;;;;;;5116452;28;20406;-58
2023/12/11 10:01:00;;;;;;;2.15;0.55;;;;;;;;;;5115832;28;20027;-59
2023/12/11 10:03:27;;;;;;;1.33;0.50;;;;;;;;;;5115783;28;20036;-59
2023/12/11 10:05:56;;;;;;;1.63;0.40;;;;;;;;;;5115662;28;20069;-59
2023/12/11 10:08:22;;;;;;;1.45;0.50;;;;;;;;;;5115707;28;20024;-58
2023/12/11 10:10:48;;;;;;;0.47;0.30;;;;;;;;;;5115547;28;20084;-59
2023/12/11 10:13:25;;;;;;;0.70;0.20;;;;;;;;;;5115290;28;20032;-59
2023/12/11 10:15:51;;;;;;;1.23;0.40;;;;;;;;;;5115406;28;20020;-59
2023/12/11 10:18:17;;;;;;;1.65;0.70;;;;;;;;;;5115883;28;20038;-57
2023/12/11 10:20:45;;;;;;;0.82;0.40;;;;;;;;;;5115971;28;20114;-58
2023/12/11 10:23:18;;;;;;;1.08;0.38;;;;;;;;;;5115285;28;20035;-58
2023/12/11 10:25:47;;;;;;;1.73;0.65;;;;;;;;;;5115320;28;20023;-59
2023/12/11 10:28:15;;;;;;;0.85;0.40;;;;;;;;;;5115849;28;20023;-58
2023/12/11 10:30:47;;;;;;;0.77;0.38;;;;;;;;;;5114855;28;20027;-58
2023/12/11 10:33:12;;;;;;;0.47;0.17;;;;;;;;;;5115155;28;20032;-58
2023/12/11 10:35:39;;;;;;;1.42;0.45;;;;;;;;;;5115102;28;20434;-58
2023/12/11 10:38:05;;;;;;;1.40;0.40;;;;;;;;;;5114995;28;20024;-58
2023/12/11 10:40:41;;;;;;;0.50;0.20;;;;;;;;;;5115870;28;20031;-58
2023/12/11 10:43:07;;;;;;;0.43;0.25;;;;;;;;;;5114905;28;20031;-58
2023/12/11 10:45:34;;;;;;;1.52;0.57;;;;;;;;;;5114887;28;20055;-58
2023/12/11 10:48:00;;;;;;;1.85;0.45;;;;;;;;;;5115161;28;20475;-58
2023/12/11 10:50:27;;;;;;;1.35;0.35;;;;;;;;;;5114809;28;20054;-58
2023/12/11 10:52:53;;;;;;;0.50;0.20;;;;;;;;;;5115340;28;20027;-58
2023/12/11 10:55:19;;;;;;;1.05;0.50;;;;;;;;;;5114581;28;20051;-58
2023/12/11 10:57:45;;;;;;;1.15;0.45;;;;;;;;;;5114692;28;20027;-58
2023/12/11 11:00:13;;;;;;;3.42;0.40;;;;;;;;;;5114699;28;20446;-58
2023/12/11 11:02:40;;;;;;;0.73;0.40;;;;;;;;;;5114678;28;20041;-58
2023/12/11 11:05:06;;;;;;;1.00;0.45;;;;;;;;;;5114342;28;20119;-58
2023/12/11 11:07:35;;;;;;;0.82;0.30;;;;;;;;;;5114820;28;20425;-59
2023/12/11 11:10:27;;;;;;;0.82;0.20;;;;;;;;;;5114354;28;20024;-58
2023/12/11 11:13:00;;;;;;;1.13;0.35;;;;;;;;;;5109639;28;20431;-58
2023/12/11 11:15:26;;;;;;;1.10;0.43;;;;;;;;;;5114506;28;20542;-58
2023/12/11 11:18:03;;;;;;;0.77;0.38;;;;;;;;;;5114854;28;20032;-58
2023/12/11 11:20:35;;;;;;;0.63;0.28;;;;;;;;;;5114695;28;20073;-58
2023/12/11 11:23:16;;;;;;;0.80;0.32;;;;;;;;;;5114315;28;20035;-58
2023/12/11 11:25:45;;;;;;;2.22;0.50;;;;;;;;;;5114290;28;20114;-58
2023/12/11 11:28:31;;;;;;;3.85;0.45;;;;;;;;;;5115185;28;20023;-58
2023/12/11 11:30:57;;;;;;;1.58;0.73;;;;;;;;;;5096533;28;20143;-58
2023/12/11 11:33:23;;;;;;;0.70;0.32;;;;;;;;;;5115002;28;20063;-58
2023/12/11 11:35:50;;;;;;;0.68;0.40;;;;;;;;;;5114520;28;20055;-58
2023/12/11 11:38:17;;;;;;;1.42;0.57;;;;;;;;;;5114791;28;20024;-59
2023/12/11 11:40:44;;;;;;;1.08;0.60;;;;;;;;;;5114145;28;20020;-59
2023/12/11 11:43:10;;;;;;;3.85;0.75;;;;;;;;;;5114019;28;20465;-59
2023/12/11 11:45:36;;;;;;;1.45;0.50;;;;;;;;;;5114418;28;20084;-59
2023/12/11 11:48:03;;;;;;;2.35;0.38;;;;;;;;;;5114998;28;20031;-58
2023/12/11 11:50:28;;;;;;;1.45;0.70;;;;;;;;;;5113782;28;20020;-58
2023/12/11 11:52:58;;;;;;;0.50;0.20;;;;;;;;;;5114829;28;20034;-58
2023/12/11 11:55:28;;;;;;;2.03;0.45;;;;;;;;;;5113834;28;20462;-59
2023/12/11 11:57:54;;;;;;;1.05;0.30;;;;;;;;;;5114705;28;20467;-58
2023/12/11 12:00:24;;;;;;;1.08;0.55;;;;;;;;;;5113767;28;20492;-58
2023/12/11 12:03:00;;;;;;;1.50;0.63;;;;;;;;;;5113996;28;20118;-56
2023/12/11 12:05:29;;;;;;;2.42;0.70;;;;;;;;;;5114278;28;20469;-58
2023/12/11 12:07:55;;;;;;;4.60;0.80;;;;;;;;;;5114348;28;20098;-58
2023/12/11 12:10:21;;;;;;;2.40;0.68;;;;;;;;;;5113619;28;20465;-58
2023/12/11 12:12:50;;;;;;;1.73;0.77;;;;;;;;;;5114418;28;20030;-58
2023/12/11 12:15:16;;;;;;;3.90;0.93;;;;;;;;;;5115448;28;20035;-58
2023/12/11 12:17:45;;;;;;;4.70;0.90;;;;;;;;;;5118453;28;20027;-58
2023/12/11 12:20:15;;;;;;;1.25;0.45;;;;;;;;;;5117832;28;20027;-58
2023/12/11 12:23:07;;;;;;;2.28;0.90;;;;;;;;;;5117729;28;20039;-56
2023/12/11 12:25:33;;;;;;;3.05;0.70;;;;;;;;;;5113076;28;20511;-58
2023/12/11 12:28:04;;;;;;;2.90;1.25;;;;;;;;;;5118521;28;20027;-58
2023/12/11 12:30:31;;;;;;;2.40;0.98;;;;;;;;;;5117258;28;20057;-57
2023/12/11 12:32:57;;;;;;;1.67;0.70;;;;;;;;;;5117477;28;20076;-58
2023/12/11 12:35:24;;;;;;;1.63;0.70;;;;;;;;;;5117627;28;20403;-58
2023/12/11 12:37:50;;;;;;;2.35;0.60;;;;;;;;;;5117646;28;20027;-57
2023/12/11 12:40:17;;;;;;;1.52;0.82;;;;;;;;;;5117466;28;20028;-58
2023/12/11 12:42:43;;;;;;;4.35;1.23;;;;;;;;;;5117355;28;20028;-58
2023/12/11 12:45:10;;;;;;;3.65;1.00;;;;;;;;;;5117680;28;20031;-57
2023/12/11 12:48:03;;;;;;;3.60;0.77;;;;;;;;;;5117684;28;20019;-58
2023/12/11 12:50:29;;;;;;;2.63;0.82;;;;;;;;;;5094029;28;20488;-57
2023/12/11 12:53:05;;;;;;;2.75;1.02;;;;;;;;;;5117705;28;20020;-58
2023/12/11 12:55:31;;;;;;;3.90;1.25;;;;;;;;;;5117088;28;20350;-58
2023/12/11 12:58:00;;;;;;;2.25;0.65;;;;;;;;;;5117447;28;20042;-58
2023/12/11 13:00:26;;;;;;;1.25;0.65;;;;;;;;;;5116992;28;20028;-58
2023/12/11 13:02:52;;;;;;;5.30;1.02;;;;;;;;;;5117475;28;20026;-58
2023/12/11 13:05:18;;;;;;;6.13;0.93;;;;;;;;;;5116886;28;20028;-57
2023/12/11 13:08:04;;;;;;;2.28;0.75;;;;;;;;;;5117510;28;20024;-58
2023/12/11 13:10:31;;;;;;;1.85;0.57;;;;;;;;;;5117366;28;20110;-58
2023/12/11 13:12:56;;;;;;;2.45;0.75;;;;;;;;;;5116768;28;20051;-58
2023/12/11 13:15:22;;;;;;;2.13;0.80;;;;;;;;;;5117013;28;20028;-58
2023/12/11 13:17:50;;;;;;;3.38;0.60;;;;;;;;;;5116728;28;20024;-56
2023/12/11 13:20:16;;;;;;;1.20;0.60;;;;;;;;;;5116664;28;20115;-57
2023/12/11 13:22:42;;;;;;;1.23;0.47;;;;;;;;;;5117115;28;20047;-58
2023/12/11 13:25:08;;;;;;;3.63;0.57;;;;;;;;;;5116410;28;20445;-57
2023/12/11 13:27:34;;;;;;;1.67;0.63;;;;;;;;;;5116169;28;20024;-58
2023/12/11 13:30:02;;;;;;;2.55;0.73;;;;;;;;;;5116640;28;20373;-57
2023/12/11 13:32:28;;;;;;;1.17;0.45;;;;;;;;;;5116368;28;20027;-56
2023/12/11 13:34:54;;;;;;;7.53;0.98;;;;;;;;;;5116177;28;20103;-56
2023/12/11 13:37:20;;;;;;;6.00;0.90;;;;;;;;;;5116939;28;20020;-57
2023/12/11 13:39:46;;;;;;;3.30;0.63;;;;;;;;;;5116785;28;20055;-57
2023/12/11 13:42:12;;;;;;;7.55;0.88;;;;;;;;;;5116146;28;20111;-56
2023/12/11 13:44:38;;;;;;;3.53;1.08;;;;;;;;;;5116041;28;20126;-57
2023/12/11 13:47:04;;;;;;;2.72;0.80;;;;;;;;;;5116729;28;20030;-58
2023/12/11 13:49:30;;;;;;;3.33;0.90;;;;;;;;;;5116108;28;20023;-58
2023/12/11 13:51:55;;;;;;;5.13;1.05;;;;;;;;;;5115933;28;20498;-58
2023/12/11 13:54:23;;;;;;;4.95;1.77;;;;;;;;;;5115510;28;20016;-58
2023/12/11 13:56:49;;;;;;;5.68;1.40;;;;;;;;;;5115354;28;20091;-58
2023/12/11 13:59:15;;;;;;;1.98;0.75;;;;;;;;;;5097559;28;20020;-59
2023/12/11 14:01:41;;;;;;;2.47;0.60;;;;;;;;;;5116095;28;20072;-58
2023/12/11 14:04:07;;;;;;;5.00;1.27;;;;;;;;;;5115747;28;20027;-59
2023/12/11 14:06:33;;;;;;;5.15;1.25;;;;;;;;;;5115734;28;20061;-58
2023/12/11 14:08:58;;;;;;;3.53;1.30;;;;;;;;;;5115738;28;20020;-59
2023/12/11 14:11:24;;;;;;;1.95;0.90;;;;;;;;;;5115123;28;20051;-59
2023/12/11 14:13:50;;;;;;;4.05;0.85;;;;;;;;;;5115457;28;20024;-59
2023/12/11 14:16:16;;;;;;;3.28;1.20;;;;;;;;;;5114830;28;20035;-59
2023/12/11 14:18:42;;;;;;;1.70;0.68;;;;;;;;;;5115770;28;20023;-59
2023/12/11 14:21:10;;;;;;;4.35;1.08;;;;;;;;;;5115371;28;20407;-59
2023/12/11 14:23:38;;;;;;;6.93;1.02;;;;;;;;;;5115715;28;20089;-59
2023/12/11 14:26:04;;;;;;;5.00;1.45;;;;;;;;;;5115663;28;20036;-59
2023/12/11 14:28:29;;;;;;;6.78;1.65;;;;;;;;;;5115707;28;20354;-59
2023/12/11 14:30:56;;;;;;;5.43;1.25;;;;;;;;;;5115165;28;20030;-58
2023/12/11 14:33:22;;;;;;;3.60;1.17;;;;;;;;;;5116016;28;20411;-57
2023/12/11 14:35:48;;;;;;;2.88;0.93;;;;;;;;;;5115105;28;20028;-59
2023/12/11 14:38:14;;;;;;;3.78;1.00;;;;;;;;;;5114961;28;20076;-59
2023/12/11 14:40:40;;;;;;;1.85;1.20;;;;;;;;;;5115359;28;20023;-59